createdAt,value
2022-11-25T00:01:41.181Z,99906.84
2022-11-25T00:04:09.624Z,99905.22
2022-11-25T00:06:39.352Z,99901.19
2022-11-25T00:09:11.381Z,99902.41
2022-11-25T00:11:41.670Z,99906.06
2022-11-25T00:14:14.782Z,99906.47
2022-11-25T00:16:48.175Z,99907.72
2022-11-25T00:19:17.565Z,99894.31
2022-11-25T00:21:47.410Z,99889.47
2022-11-25T00:24:17.530Z,99885.44
2022-11-25T00:26:46.029Z,99876.72
2022-11-25T00:29:15.296Z,99881.59
2022-11-25T00:31:43.833Z,99878.38
2022-11-25T00:34:15.407Z,99889.72
2022-11-25T00:36:44.072Z,99881.19
2022-11-25T00:39:15.926Z,99886.69
2022-11-25T00:42:02.620Z,99899.22
2022-11-25T00:44:37.828Z,99901.06
2022-11-25T00:47:10.388Z,99896.19
2022-11-25T00:49:40.476Z,99886.69
2022-11-25T00:52:09.850Z,99896.00
2022-11-25T00:54:39.764Z,99887.09
2022-11-25T00:57:08.204Z,99886.91
2022-11-25T00:59:36.710Z,99893.16
2022-11-25T01:02:05.325Z,99895.00
2022-11-25T01:04:34.539Z,99895.22
2022-11-25T01:07:03.392Z,99895.41
2022-11-25T01:09:32.644Z,99894.00
2022-11-25T01:12:02.689Z,99900.06
2022-11-25T01:14:32.971Z,99906.53
2022-11-25T01:17:02.102Z,99898.06
2022-11-25T01:19:30.686Z,99908.38
2022-11-25T01:22:01.461Z,99900.69
2022-11-25T01:24:29.977Z,99899.06
2022-11-25T01:26:58.397Z,99914.03
2022-11-25T01:29:28.227Z,99908.19
2022-11-25T01:31:57.531Z,99905.56
2022-11-25T01:34:28.548Z,99901.50
2022-11-25T01:36:58.849Z,99907.00
2022-11-25T01:39:32.511Z,99907.00
2022-11-25T01:42:02.132Z,99906.59
2022-11-25T01:44:34.044Z,99900.72
2022-11-25T01:47:10.633Z,99901.50
2022-11-25T01:49:43.564Z,99900.94
2022-11-25T01:52:18.270Z,99901.09
2022-11-25T01:54:53.569Z,99896.44
2022-11-25T01:57:28.209Z,99912.66
2022-11-25T02:00:01.917Z,99896.63
2022-11-25T02:02:33.426Z,99901.47
2022-11-25T02:05:05.190Z,99906.75
2022-11-25T02:07:38.157Z,99902.50
2022-11-25T02:10:13.900Z,99899.06
2022-11-25T02:12:47.276Z,99902.09
2022-11-25T02:15:18.508Z,99902.91
2022-11-25T02:17:47.292Z,99906.16
2022-11-25T02:20:18.097Z,99905.53
2022-11-25T02:22:58.952Z,99902.50
2022-11-25T02:25:32.100Z,99909.38
2022-11-25T02:28:04.750Z,99910.63
2022-11-25T02:30:34.204Z,99908.56
2022-11-25T02:33:03.304Z,99905.34
2022-11-25T02:35:35.404Z,99912.22
2022-11-25T02:38:11.135Z,99906.56
2022-11-25T02:40:48.677Z,99905.34
2022-11-25T02:43:18.026Z,99905.53
2022-11-25T02:45:58.482Z,99899.06
2022-11-25T02:48:52.861Z,99904.31
2022-11-25T02:51:22.073Z,99898.06
2022-11-25T02:53:51.365Z,99888.53
2022-11-25T02:56:24.786Z,99891.19
2022-11-25T02:58:54.644Z,99899.06
2022-11-25T03:01:23.913Z,99891.19
2022-11-25T03:03:52.507Z,99889.97
2022-11-25T03:06:20.970Z,99888.16
2022-11-25T03:08:52.438Z,99897.06
2022-11-25T03:11:43.411Z,99893.81
2022-11-25T03:14:12.476Z,99896.44
2022-11-25T03:16:41.163Z,99894.81
2022-11-25T03:19:10.064Z,99886.13
2022-11-25T03:21:38.555Z,99886.94
2022-11-25T03:24:08.176Z,99875.41
2022-11-25T03:26:38.018Z,99890.19
2022-11-25T03:29:06.452Z,99885.13
2022-11-25T03:31:36.679Z,99884.72
2022-11-25T03:34:05.360Z,99892.81
2022-11-25T03:36:34.010Z,99883.28
2022-11-25T03:39:02.666Z,99878.66
2022-11-25T03:41:31.154Z,99887.56
2022-11-25T03:44:01.062Z,99882.31
2022-11-25T03:46:29.618Z,99873.16
2022-11-25T03:48:58.847Z,99867.31
2022-11-25T03:51:27.429Z,99860.03
2022-11-25T03:53:55.962Z,99862.88
2022-11-25T03:56:26.111Z,99871.78
2022-11-25T03:58:54.943Z,99860.44
2022-11-25T04:01:26.025Z,99860.66
2022-11-25T04:03:54.701Z,99876.81
2022-11-25T04:06:24.029Z,99870.75
2022-11-25T04:08:55.077Z,99875.41
2022-11-25T04:11:43.697Z,99879.44
2022-11-25T04:14:12.291Z,99876.03
2022-11-25T04:16:42.322Z,99876.03
2022-11-25T04:19:11.139Z,99870.13
2022-11-25T04:21:39.708Z,99876.59
2022-11-25T04:24:09.596Z,99875.00
2022-11-25T04:26:38.064Z,99875.00
2022-11-25T04:29:06.709Z,99872.59
2022-11-25T04:31:35.645Z,99875.00
2022-11-25T04:34:06.226Z,99880.25
2022-11-25T04:36:35.904Z,99877.84
2022-11-25T04:39:04.999Z,99873.00
2022-11-25T04:41:34.568Z,99885.50
2022-11-25T04:44:03.198Z,99875.00
2022-11-25T04:46:38.659Z,99875.22
2022-11-25T04:49:08.676Z,99879.06
2022-11-25T04:51:37.168Z,99879.06
2022-11-25T04:54:09.664Z,99882.69
2022-11-25T04:56:40.987Z,99885.13
2022-11-25T04:59:27.795Z,99881.88
2022-11-25T05:01:56.332Z,99871.16
2022-11-25T05:04:36.796Z,99858.81
2022-11-25T05:07:05.774Z,99860.44
2022-11-25T05:09:35.085Z,99842.41
2022-11-25T05:12:31.447Z,99854.59
2022-11-25T05:15:01.202Z,99853.56
2022-11-25T05:17:33.103Z,99859.03
2022-11-25T05:20:04.788Z,99845.06
2022-11-25T05:22:36.624Z,99859.63
2022-11-25T05:25:07.663Z,99858.81
2022-11-25T05:27:41.568Z,99852.94
2022-11-25T05:30:12.604Z,99865.69
2022-11-25T05:32:41.605Z,99876.19
2022-11-25T05:35:13.734Z,99873.56
2022-11-25T05:37:42.283Z,99868.94
2022-11-25T05:40:13.046Z,99877.00
2022-11-25T05:43:01.474Z,99874.81
2022-11-25T05:45:34.582Z,99872.38
2022-11-25T05:48:02.994Z,99886.31
2022-11-25T05:50:32.926Z,99899.88
2022-11-25T05:53:34.025Z,99894.03
2022-11-25T05:56:06.820Z,99902.31
2022-11-25T05:58:55.067Z,99896.03
2022-11-25T06:01:27.470Z,99893.41
2022-11-25T06:03:56.858Z,99895.22
2022-11-25T06:06:26.695Z,99892.59
2022-11-25T06:08:56.068Z,99890.78
2022-11-25T06:11:26.483Z,99881.28
2022-11-25T06:13:57.423Z,99887.34
2022-11-25T06:16:27.016Z,99881.91
2022-11-25T06:19:06.808Z,99911.22
2022-11-25T06:21:40.254Z,99910.38
2022-11-25T06:24:09.437Z,99925.78
2022-11-25T06:26:42.208Z,99942.97
2022-11-25T06:29:10.890Z,99921.94
2022-11-25T06:31:41.079Z,99917.69
2022-11-25T06:34:32.163Z,99913.44
2022-11-25T06:37:03.538Z,99920.72
2022-11-25T06:39:31.934Z,99924.34
2022-11-25T06:42:00.328Z,99930.22
2022-11-25T06:44:28.862Z,99923.53
2022-11-25T06:46:57.354Z,99933.44
2022-11-25T06:49:26.149Z,99954.31
2022-11-25T06:51:54.912Z,99959.56
2022-11-25T06:54:25.063Z,99970.09
2022-11-25T06:56:53.849Z,99965.22
2022-11-25T06:59:22.654Z,99975.78
2022-11-25T07:01:51.454Z,99971.31
2022-11-25T07:04:19.987Z,99968.47
2022-11-25T07:06:50.377Z,99978.19
2022-11-25T07:09:19.695Z,99968.69
2022-11-25T07:11:50.229Z,99970.13
2022-11-25T07:14:19.309Z,99976.38
2022-11-25T07:16:47.960Z,99976.78
2022-11-25T07:19:19.606Z,99982.03
2022-11-25T07:21:48.576Z,99977.78
2022-11-25T07:24:18.691Z,99982.88
2022-11-25T07:26:48.861Z,99996.03
2022-11-25T07:32:10.582Z,99993.19
2022-11-25T07:34:39.594Z,99986.72
2022-11-25T07:37:08.111Z,100000.47
2022-11-25T07:39:37.112Z,99987.13
2022-11-25T07:42:07.205Z,99981.84
2022-11-25T07:44:35.824Z,99973.75
2022-11-25T07:47:26.996Z,99967.28
2022-11-25T07:49:55.403Z,99986.50
2022-11-25T07:52:23.811Z,99976.19
2022-11-25T07:54:52.211Z,99968.09
2022-11-25T07:57:22.034Z,99985.69
2022-11-25T07:59:50.439Z,99981.03
2022-11-25T08:02:18.817Z,99976.97
2022-11-25T08:04:47.178Z,99985.69
2022-11-25T08:07:15.696Z,99978.59
2022-11-25T08:09:44.279Z,99981.03
2022-11-25T08:12:12.801Z,99976.56
2022-11-25T08:14:42.706Z,99987.72
2022-11-25T08:17:12.194Z,99971.13
2022-11-25T08:19:41.491Z,99980.41
2022-11-25T08:22:09.904Z,99978.16
2022-11-25T08:24:38.480Z,99983.44
2022-11-25T08:27:07.286Z,99988.50
2022-11-25T08:29:35.977Z,99991.72
2022-11-25T08:32:11.819Z,99989.09
2022-11-25T08:34:40.624Z,99990.75
2022-11-25T08:37:11.520Z,99995.59
2022-11-25T08:39:52.279Z,99992.75
2022-11-25T08:42:21.769Z,99989.50
2022-11-25T08:44:55.514Z,99995.78
2022-11-25T08:47:26.131Z,99992.94
2022-11-25T08:49:55.701Z,99996.41
2022-11-25T08:52:24.800Z,100003.06
2022-11-25T08:54:53.259Z,100011.56
2022-11-25T08:57:21.813Z,99992.34
2022-11-25T08:59:50.337Z,100000.81
2022-11-25T09:02:19.731Z,99999.44
2022-11-25T09:04:49.746Z,100001.84
2022-11-25T09:07:18.351Z,100008.31
2022-11-25T09:09:46.990Z,100000.81
2022-11-25T09:12:15.485Z,99999.63
2022-11-25T09:14:44.120Z,99990.91
2022-11-25T09:17:15.858Z,100004.88
2022-11-25T09:19:44.434Z,100013.38
2022-11-25T09:22:14.460Z,100005.47
2022-11-25T09:24:43.774Z,100020.66
2022-11-25T09:27:12.325Z,100020.44
2022-11-25T09:29:41.014Z,100027.94
2022-11-25T09:32:09.732Z,100023.66
2022-11-25T09:34:38.745Z,100015.34
2022-11-25T09:37:07.597Z,100043.09
2022-11-25T09:39:37.926Z,100031.91
2022-11-25T09:42:56.908Z,100043.03
2022-11-25T09:45:50.974Z,100045.06
2022-11-25T09:48:49.675Z,100052.94
2022-11-25T09:51:24.388Z,100060.81
2022-11-25T09:53:56.200Z,100054.31
2022-11-25T09:56:36.725Z,100059.16
2022-11-25T09:59:13.486Z,100054.06
2022-11-25T10:01:49.639Z,100051.59
2022-11-25T10:04:27.201Z,100055.25
2022-11-25T10:07:01.156Z,100065.97
2022-11-25T10:09:33.736Z,100076.09
2022-11-25T10:12:11.130Z,100066.16
2022-11-25T10:14:46.375Z,100072.66
2022-11-25T10:17:25.060Z,100081.13
2022-11-25T10:19:59.986Z,100078.09
2022-11-25T10:22:33.606Z,100082.75
2022-11-25T10:25:11.013Z,100085.97
2022-11-25T10:27:47.361Z,100091.63
2022-11-25T10:30:21.301Z,100101.75
2022-11-25T10:33:00.799Z,100096.06
2022-11-25T10:35:36.439Z,100100.09
2022-11-25T10:38:18.585Z,100106.00
2022-11-25T10:40:51.512Z,100107.19
2022-11-25T10:43:21.499Z,100105.16
2022-11-25T10:46:00.092Z,100100.44
2022-11-25T10:48:50.363Z,100109.78
2022-11-25T10:51:37.458Z,100109.38
2022-11-25T10:54:18.100Z,100102.03
2022-11-25T10:57:06.415Z,100104.84
2022-11-25T10:59:39.752Z,100111.31
2022-11-25T11:02:20.384Z,100109.25
2022-11-25T11:04:58.462Z,100111.47
2022-11-25T11:07:29.918Z,100112.88
2022-11-25T11:10:20.725Z,100111.06
2022-11-25T11:12:58.957Z,100110.41
2022-11-25T11:15:31.119Z,100107.78
2022-11-25T11:18:02.114Z,100115.06
2022-11-25T11:20:32.260Z,100120.94
2022-11-25T11:23:09.356Z,100118.28
2022-11-25T11:25:39.735Z,100117.88
2022-11-25T11:28:28.164Z,100121.31
2022-11-25T11:31:04.342Z,100122.94
2022-11-25T11:33:39.029Z,100121.69
2022-11-25T11:36:51.286Z,100123.75
2022-11-25T11:39:49.369Z,100125.94
2022-11-25T11:42:27.329Z,100134.47
2022-11-25T11:45:07.148Z,100121.88
2022-11-25T11:47:48.191Z,100122.44
2022-11-25T11:50:28.723Z,100111.88
2022-11-25T11:53:04.103Z,100120.41
2022-11-25T11:56:26.856Z,100122.25
2022-11-25T11:59:00.774Z,100136.28
2022-11-25T12:01:46.541Z,100146.59
2022-11-25T12:04:25.947Z,100142.75
2022-11-25T12:07:04.450Z,100141.50
2022-11-25T12:09:38.534Z,100137.41
2022-11-25T12:12:12.713Z,100141.66
2022-11-25T12:14:44.872Z,100143.06
2022-11-25T12:17:20.548Z,100138.38
2022-11-25T12:19:58.735Z,100150.56
2022-11-25T12:22:31.529Z,100150.94
2022-11-25T12:25:08.809Z,100154.97
2022-11-25T12:27:42.375Z,100150.31
2022-11-25T12:30:16.120Z,100155.16
2022-11-25T12:33:00.837Z,100156.34
2022-11-25T12:35:50.916Z,100154.28
2022-11-25T12:38:32.405Z,100167.69
2022-11-25T12:41:10.750Z,100173.13
2022-11-25T12:43:47.745Z,100164.78
2022-11-25T12:46:27.141Z,100164.34
2022-11-25T12:48:58.254Z,100172.66
2022-11-25T12:51:49.130Z,100174.03
2022-11-25T12:54:42.331Z,100185.81
2022-11-25T12:57:41.942Z,100185.34
2022-11-25T13:03:39.140Z,100188.97
2022-11-25T13:06:45.297Z,100197.06
2022-11-25T13:09:30.695Z,100208.00
2022-11-25T13:12:17.578Z,100208.63
2022-11-25T13:15:27.035Z,100205.75
2022-11-25T13:18:01.551Z,100216.69
2022-11-25T13:20:46.209Z,100216.50
2022-11-25T13:23:50.726Z,100219.72
2022-11-25T13:26:49.590Z,100225.59
2022-11-25T13:30:01.435Z,100223.75
2022-11-25T13:32:40.360Z,100218.03
2022-11-25T13:35:54.766Z,100224.94
2022-11-25T13:39:06.790Z,100236.31
2022-11-25T13:41:45.578Z,100234.84
2022-11-25T13:44:28.040Z,100233.63
2022-11-25T13:46:58.717Z,100237.44
2022-11-25T13:49:44.993Z,100244.16
2022-11-25T13:52:42.682Z,100237.81
2022-11-25T13:55:34.080Z,100247.97
2022-11-25T13:58:08.367Z,100247.78
2022-11-25T14:01:06.739Z,100259.16
2022-11-25T14:04:00.267Z,100255.72
2022-11-25T14:06:52.527Z,100253.88
2022-11-25T14:09:36.517Z,100261.56
2022-11-25T14:12:28.529Z,100266.44
2022-11-25T14:15:30.656Z,100261.72
2022-11-25T14:22:08.950Z,100275.53
2022-11-25T14:24:40.084Z,100281.22
2022-11-25T14:27:19.299Z,100280.19
2022-11-25T14:29:53.920Z,100286.06
2022-11-25T14:32:29.822Z,100283.19
2022-11-25T14:35:04.777Z,100290.94
2022-11-25T14:37:40.761Z,100293.34
2022-11-25T14:40:16.947Z,100293.34
2022-11-25T14:42:51.365Z,100289.66
2022-11-25T14:45:26.710Z,100305.13
2022-11-25T14:47:55.135Z,100306.75
2022-11-25T14:50:34.773Z,100317.91
2022-11-25T14:53:08.219Z,100319.75
2022-11-25T14:55:38.164Z,100325.84
2022-11-25T14:58:08.196Z,100317.13
2022-11-25T15:00:36.669Z,100326.22
2022-11-25T15:03:06.719Z,100330.50
2022-11-25T15:05:38.124Z,100325.19
2022-11-25T15:08:14.124Z,100340.88
2022-11-25T15:10:51.052Z,100336.81
2022-11-25T15:13:34.279Z,100351.66
2022-11-25T15:16:09.464Z,100344.56
2022-11-25T15:18:39.368Z,100336.63
2022-11-25T15:21:08.218Z,100352.03
2022-11-25T15:23:39.514Z,100346.97
2022-11-25T15:26:19.531Z,100358.38
2022-11-25T15:28:55.432Z,100353.06
2022-11-25T15:31:29.177Z,100353.06
2022-11-25T15:34:00.811Z,100352.88
2022-11-25T15:36:29.796Z,100355.97
2022-11-25T15:39:16.364Z,100359.19
2022-11-25T15:41:46.729Z,100354.69
2022-11-25T15:44:24.507Z,100371.41
2022-11-25T15:47:00.343Z,100365.28
2022-11-25T15:49:30.086Z,100370.56
2022-11-25T15:52:04.335Z,100377.72
2022-11-25T15:54:39.707Z,100379.56
2022-11-25T15:57:19.236Z,100381.41
2022-11-25T15:59:52.655Z,100389.78
2022-11-25T16:02:53.857Z,100394.50
2022-11-25T16:05:49.344Z,100395.28
2022-11-25T16:08:42.555Z,100399.97
2022-11-25T16:11:19.361Z,100402.63
2022-11-25T16:13:49.375Z,100395.91
2022-11-25T16:16:24.108Z,100399.41
2022-11-25T16:19:16.977Z,100408.34
2022-11-25T16:21:58.177Z,100390.47
2022-11-25T16:24:47.442Z,100409.00
2022-11-25T16:27:25.719Z,100406.13
2022-11-25T16:29:58.122Z,100421.19
2022-11-25T16:32:30.099Z,100409.00
2022-11-25T16:35:12.277Z,100417.38
2022-11-25T16:37:45.423Z,100420.03
2022-11-25T16:40:18.995Z,100423.69
2022-11-25T16:42:50.547Z,100424.75
2022-11-25T16:45:23.123Z,100427.81
2022-11-25T16:47:52.969Z,100433.09
2022-11-25T16:50:22.481Z,100426.16
2022-11-25T16:52:51.020Z,100434.34
2022-11-25T16:55:19.496Z,100442.50
2022-11-25T16:57:48.301Z,100445.97
2022-11-25T17:00:48.892Z,100447.41
2022-11-25T17:03:19.587Z,100446.81
2022-11-25T17:05:48.522Z,100458.41
2022-11-25T17:08:17.358Z,100450.69
2022-11-25T17:10:46.888Z,100455.16
2022-11-25T17:13:21.823Z,100464.13
2022-11-25T17:15:51.151Z,100469.66
2022-11-25T17:18:22.713Z,100480.44
2022-11-25T17:20:51.231Z,100482.50
2022-11-25T17:23:22.426Z,100481.66
2022-11-25T17:25:51.804Z,100491.66
2022-11-25T17:28:22.415Z,100495.91
2022-11-25T17:30:50.890Z,100496.16
2022-11-25T17:33:22.061Z,100499.78
2022-11-25T17:35:50.535Z,100493.13
2022-11-25T17:38:21.996Z,100493.91
2022-11-25T17:40:50.891Z,100506.13
2022-11-25T17:43:21.759Z,100510.59
2022-11-25T17:45:50.377Z,100508.19
2022-11-25T17:48:20.927Z,100523.22
2022-11-25T17:50:49.813Z,100519.56
2022-11-25T17:53:18.253Z,100512.63
2022-11-25T17:55:46.707Z,100526.91
2022-11-25T17:58:15.944Z,100539.94
2022-11-25T18:00:45.254Z,100539.31
2022-11-25T18:03:15.413Z,100539.72
2022-11-25T18:05:46.216Z,100547.47
2022-11-25T18:08:14.853Z,100544.81
2022-11-25T18:10:47.005Z,100546.84
2022-11-25T18:13:17.128Z,100551.13
2022-11-25T18:15:45.872Z,100560.09
2022-11-25T18:18:21.567Z,100564.56
2022-11-25T18:20:51.760Z,100553.59
2022-11-25T18:23:20.638Z,100558.66
2022-11-25T18:25:49.778Z,100560.72
2022-11-25T18:28:23.449Z,100566.00
2022-11-25T18:30:54.391Z,100575.78
2022-11-25T18:33:23.035Z,100578.63
2022-11-25T18:35:53.321Z,100586.56
2022-11-25T18:38:21.884Z,100590.66
2022-11-25T18:40:53.890Z,100607.13
2022-11-25T18:43:28.596Z,100609.97
2022-11-25T18:45:57.403Z,100608.13
2022-11-25T18:48:27.969Z,100605.72
2022-11-25T18:50:58.244Z,100619.75
2022-11-25T18:53:33.765Z,100614.06
2022-11-25T18:56:02.420Z,100623.59
2022-11-25T18:58:32.701Z,100636.03
2022-11-25T19:01:06.092Z,100638.09
2022-11-25T19:03:35.004Z,100632.78
2022-11-25T19:06:05.855Z,100638.28
2022-11-25T19:08:34.717Z,100651.31
2022-11-25T19:11:03.681Z,100649.06
2022-11-25T19:13:35.541Z,100645.22
2022-11-25T19:16:13.461Z,100657.59
2022-11-25T19:18:44.347Z,100663.72
2022-11-25T19:21:17.219Z,100677.75
2022-11-25T19:23:46.688Z,100674.09
2022-11-25T19:26:18.825Z,100687.53
2022-11-25T19:28:52.514Z,100683.44
2022-11-25T19:31:22.039Z,100690.97
2022-11-25T19:33:52.471Z,100695.47
2022-11-25T19:36:26.595Z,100690.16
2022-11-25T19:38:55.487Z,100691.97
2022-11-25T19:41:23.998Z,100696.47
2022-11-25T19:43:53.069Z,100706.03
2022-11-25T19:46:33.010Z,100712.13
2022-11-25T19:49:06.806Z,100719.28
2022-11-25T19:51:37.169Z,100722.09
2022-11-25T19:54:07.344Z,100734.91
2022-11-25T19:56:37.674Z,100731.66
2022-11-25T19:59:07.190Z,100734.09
2022-11-25T20:01:40.581Z,100738.59
2022-11-25T20:04:17.004Z,100739.59
2022-11-25T20:06:48.078Z,100743.88
2022-11-25T20:09:17.609Z,100755.44
2022-11-25T20:11:47.490Z,100756.47
2022-11-25T20:14:16.007Z,100757.09
2022-11-25T20:16:45.042Z,100757.91
2022-11-25T20:19:18.993Z,100765.03
2022-11-25T20:21:51.914Z,100752.81
2022-11-25T20:24:22.328Z,100767.06
2022-11-25T20:26:51.711Z,100765.63
2022-11-25T20:29:27.532Z,100770.31
2022-11-25T20:31:59.726Z,100787.59
2022-11-25T20:34:28.442Z,100773.78
2022-11-25T20:36:59.885Z,100784.16
2022-11-25T20:39:28.809Z,100786.78
2022-11-25T20:41:57.412Z,100792.88
2022-11-25T20:44:28.566Z,100807.94
2022-11-25T20:46:57.801Z,100803.06
2022-11-25T20:49:29.319Z,100811.84
2022-11-25T20:52:01.164Z,100818.75
2022-11-25T20:54:32.911Z,100815.88
2022-11-25T20:57:01.934Z,100823.81
2022-11-25T20:59:31.112Z,100814.66
2022-11-25T21:02:00.408Z,100818.94
2022-11-25T21:04:28.951Z,100822.41
2022-11-25T21:06:58.718Z,100834.00
2022-11-25T21:09:33.045Z,100833.19
2022-11-25T21:12:02.425Z,100834.22
2022-11-25T21:14:31.982Z,100841.13
2022-11-25T21:17:00.579Z,100842.94
2022-11-25T21:19:29.446Z,100846.41
2022-11-25T21:22:02.178Z,100846.81
2022-11-25T21:24:33.522Z,100850.06
2022-11-25T21:27:09.998Z,100849.84
2022-11-25T21:29:42.727Z,100851.28
2022-11-25T21:32:22.999Z,100858.63
2022-11-25T21:34:51.849Z,100855.34
2022-11-25T21:37:35.042Z,100859.84
2022-11-25T21:40:06.016Z,100858.00
2022-11-25T21:42:35.522Z,100868.56
2022-11-25T21:45:05.139Z,100863.50
2022-11-25T21:47:33.747Z,100859.84
2022-11-25T21:50:02.838Z,100864.31
2022-11-25T21:52:33.033Z,100864.50
2022-11-25T21:55:02.071Z,100858.78
2022-11-25T21:57:31.251Z,100860.63
2022-11-25T22:00:00.007Z,100871.03
2022-11-25T22:02:29.123Z,100864.47
2022-11-25T22:04:59.279Z,100867.97
2022-11-25T22:07:30.781Z,100865.09
2022-11-25T22:10:01.265Z,100870.78
2022-11-25T22:12:34.389Z,100871.63
2022-11-25T22:15:12.881Z,100875.25
2022-11-25T22:17:41.371Z,100877.31
2022-11-25T22:20:29.434Z,100876.25
2022-11-25T22:22:58.146Z,100890.28
2022-11-25T22:25:31.366Z,100889.06
2022-11-25T22:27:59.929Z,100883.34
2022-11-25T22:30:28.323Z,100892.09
2022-11-25T22:33:02.147Z,100889.63
2022-11-25T22:35:30.956Z,100893.69
2022-11-25T22:37:59.403Z,100897.13
2022-11-25T22:40:29.307Z,100906.28
2022-11-25T22:42:58.132Z,100901.38
2022-11-25T22:45:32.534Z,100911.13
2022-11-25T22:48:04.974Z,100912.34
2022-11-25T22:50:35.400Z,100910.13
2022-11-25T22:53:03.969Z,100908.47
2022-11-25T22:55:35.014Z,100919.47
2022-11-25T22:58:04.610Z,100922.09
2022-11-25T23:00:36.388Z,100922.66
2022-11-25T23:03:08.543Z,100925.09
2022-11-25T23:05:40.960Z,100939.75
2022-11-25T23:08:14.712Z,100934.03
2022-11-25T23:10:45.851Z,100938.47
2022-11-25T23:13:17.072Z,100944.19
2022-11-25T23:15:51.013Z,100948.84
2022-11-25T23:18:26.827Z,100955.31
2022-11-25T23:20:55.607Z,100958.16
2022-11-25T23:23:28.093Z,100968.09
2022-11-25T23:25:58.949Z,100964.03
2022-11-25T23:28:27.738Z,100971.34
2022-11-25T23:30:58.312Z,100972.34
2022-11-25T23:33:32.294Z,100966.44
2022-11-25T23:36:06.126Z,100970.09
2022-11-25T23:38:43.718Z,100982.88
2022-11-25T23:41:16.893Z,100974.72
2022-11-25T23:43:45.664Z,100973.69
2022-11-25T23:46:16.984Z,100979.38
2022-11-25T23:48:53.443Z,100980.75
2022-11-25T23:51:23.639Z,100979.75
2022-11-25T23:53:52.941Z,100987.06
2022-11-25T23:56:23.463Z,100989.06
2022-11-25T23:58:51.898Z,101004.09
